sensor_id;sensor_type;location;lat;lon;timestamp;P1;durP1;ratioP1;P2;durP2;ratioP2
52015;SDS011;38032;53.326;6.472;2022-07-22T00:01:25;10.18;;;3.33;;
52015;SDS011;38032;53.326;6.472;2022-07-22T00:03:51;15.40;;;3.30;;
52015;SDS011;38032;53.326;6.472;2022-07-22T00:06:17;11.27;;;3.20;;
52015;SDS011;38032;53.326;6.472;2022-07-22T00:08:42;9.25;;;2.92;;
52015;SDS011;38032;53.326;6.472;2022-07-22T00:11:08;10.60;;;3.40;;
52015;SDS011;38032;53.326;6.472;2022-07-22T00:13:34;11.13;;;3.45;;
52015;SDS011;38032;53.326;6.472;2022-07-22T00:16:00;10.05;;;3.38;;
52015;SDS011;38032;53.326;6.472;2022-07-22T00:18:26;14.77;;;3.15;;
52015;SDS011;38032;53.326;6.472;2022-07-22T00:20:51;9.20;;;2.63;;
52015;SDS011;38032;53.326;6.472;2022-07-22T00:23:17;10.88;;;3.00;;
52015;SDS011;38032;53.326;6.472;2022-07-22T00:25:43;7.90;;;2.70;;
52015;SDS011;38032;53.326;6.472;2022-07-22T00:28:09;7.80;;;2.83;;
52015;SDS011;38032;53.326;6.472;2022-07-22T00:30:35;9.20;;;2.80;;
52015;SDS011;38032;53.326;6.472;2022-07-22T00:33:00;12.88;;;3.03;;
52015;SDS011;38032;53.326;6.472;2022-07-22T00:35:26;8.90;;;2.92;;
52015;SDS011;38032;53.326;6.472;2022-07-22T00:37:52;10.82;;;2.85;;
52015;SDS011;38032;53.326;6.472;2022-07-22T00:40:18;10.10;;;2.78;;
52015;SDS011;38032;53.326;6.472;2022-07-22T00:42:44;9.48;;;2.70;;
52015;SDS011;38032;53.326;6.472;2022-07-22T00:45:09;8.02;;;2.70;;
52015;SDS011;38032;53.326;6.472;2022-07-22T00:47:36;10.25;;;2.83;;
52015;SDS011;38032;53.326;6.472;2022-07-22T00:50:02;7.60;;;2.33;;
52015;SDS011;38032;53.326;6.472;2022-07-22T00:52:29;9.68;;;2.70;;
52015;SDS011;38032;53.326;6.472;2022-07-22T00:54:57;12.63;;;2.88;;
52015;SDS011;38032;53.326;6.472;2022-07-22T00:57:24;5.95;;;1.90;;
52015;SDS011;38032;53.326;6.472;2022-07-22T00:59:50;11.30;;;2.70;;
52015;SDS011;38032;53.326;6.472;2022-07-22T01:02:16;9.82;;;2.65;;
52015;SDS011;38032;53.326;6.472;2022-07-22T01:04:42;7.05;;;2.53;;
52015;SDS011;38032;53.326;6.472;2022-07-22T01:07:08;7.38;;;2.47;;
52015;SDS011;38032;53.326;6.472;2022-07-22T01:09:34;7.63;;;2.15;;
52015;SDS011;38032;53.326;6.472;2022-07-22T01:12:00;10.63;;;2.85;;
52015;SDS011;38032;53.326;6.472;2022-07-22T01:14:27;10.10;;;2.30;;
52015;SDS011;38032;53.326;6.472;2022-07-22T01:16:53;8.10;;;2.55;;
52015;SDS011;38032;53.326;6.472;2022-07-22T01:19:19;7.38;;;2.60;;
52015;SDS011;38032;53.326;6.472;2022-07-22T01:21:44;6.75;;;2.92;;
52015;SDS011;38032;53.326;6.472;2022-07-22T01:24:10;9.32;;;2.67;;
52015;SDS011;38032;53.326;6.472;2022-07-22T01:26:36;12.63;;;3.15;;
52015;SDS011;38032;53.326;6.472;2022-07-22T01:29:02;10.68;;;2.55;;
52015;SDS011;38032;53.326;6.472;2022-07-22T01:31:28;7.28;;;2.60;;
52015;SDS011;38032;53.326;6.472;2022-07-22T01:33:54;6.05;;;2.45;;
52015;SDS011;38032;53.326;6.472;2022-07-22T01:36:21;12.43;;;2.60;;
52015;SDS011;38032;53.326;6.472;2022-07-22T01:38:47;7.32;;;2.20;;
52015;SDS011;38032;53.326;6.472;2022-07-22T01:41:12;6.60;;;2.30;;
52015;SDS011;38032;53.326;6.472;2022-07-22T01:43:38;8.52;;;2.33;;
52015;SDS011;38032;53.326;6.472;2022-07-22T01:46:05;7.70;;;2.88;;
52015;SDS011;38032;53.326;6.472;2022-07-22T01:48:31;9.57;;;2.42;;
52015;SDS011;38032;53.326;6.472;2022-07-22T01:50:57;6.85;;;2.20;;
52015;SDS011;38032;53.326;6.472;2022-07-22T01:53:23;4.50;;;2.10;;
52015;SDS011;38032;53.326;6.472;2022-07-22T01:55:49;6.38;;;2.50;;
52015;SDS011;38032;53.326;6.472;2022-07-22T01:58:15;9.63;;;2.50;;
52015;SDS011;38032;53.326;6.472;2022-07-22T02:00:41;5.13;;;2.50;;
52015;SDS011;38032;53.326;6.472;2022-07-22T02:03:07;9.05;;;2.58;;
52015;SDS011;38032;53.326;6.472;2022-07-22T02:05:35;10.85;;;2.35;;
52015;SDS011;38032;53.326;6.472;2022-07-22T02:08:02;8.07;;;2.20;;
52015;SDS011;38032;53.326;6.472;2022-07-22T02:10:29;9.02;;;2.80;;
52015;SDS011;38032;53.326;6.472;2022-07-22T02:12:56;8.20;;;2.47;;
52015;SDS011;38032;53.326;6.472;2022-07-22T02:15:22;7.68;;;3.08;;
52015;SDS011;38032;53.326;6.472;2022-07-22T02:17:48;7.07;;;2.70;;
52015;SDS011;38032;53.326;6.472;2022-07-22T02:20:14;9.90;;;2.88;;
52015;SDS011;38032;53.326;6.472;2022-07-22T02:22:40;7.72;;;3.00;;
52015;SDS011;38032;53.326;6.472;2022-07-22T02:25:06;8.45;;;2.40;;
52015;SDS011;38032;53.326;6.472;2022-07-22T02:27:32;8.60;;;2.58;;
52015;SDS011;38032;53.326;6.472;2022-07-22T02:29:58;11.35;;;2.40;;
52015;SDS011;38032;53.326;6.472;2022-07-22T02:32:24;5.57;;;2.28;;
52015;SDS011;38032;53.326;6.472;2022-07-22T02:34:50;8.57;;;2.70;;
52015;SDS011;38032;53.326;6.472;2022-07-22T02:37:16;7.45;;;2.30;;
52015;SDS011;38032;53.326;6.472;2022-07-22T02:39:42;8.80;;;2.88;;
52015;SDS011;38032;53.326;6.472;2022-07-22T02:42:08;5.50;;;2.03;;
52015;SDS011;38032;53.326;6.472;2022-07-22T02:44:33;5.90;;;2.38;;
52015;SDS011;38032;53.326;6.472;2022-07-22T02:46:59;8.48;;;2.25;;
52015;SDS011;38032;53.326;6.472;2022-07-22T02:49:25;7.53;;;2.25;;
52015;SDS011;38032;53.326;6.472;2022-07-22T02:51:51;6.22;;;2.30;;
52015;SDS011;38032;53.326;6.472;2022-07-22T02:54:17;6.00;;;2.20;;
52015;SDS011;38032;53.326;6.472;2022-07-22T02:56:42;7.07;;;2.50;;
52015;SDS011;38032;53.326;6.472;2022-07-22T02:59:08;7.93;;;2.63;;
52015;SDS011;38032;53.326;6.472;2022-07-22T03:01:34;9.23;;;2.38;;
52015;SDS011;38032;53.326;6.472;2022-07-22T03:04:00;8.35;;;2.42;;
52015;SDS011;38032;53.326;6.472;2022-07-22T03:06:26;9.65;;;2.83;;
52015;SDS011;38032;53.326;6.472;2022-07-22T03:08:51;9.07;;;2.30;;
52015;SDS011;38032;53.326;6.472;2022-07-22T03:11:17;6.57;;;2.30;;
52015;SDS011;38032;53.326;6.472;2022-07-22T03:13:43;7.18;;;2.35;;
52015;SDS011;38032;53.326;6.472;2022-07-22T03:16:09;6.22;;;2.35;;
52015;SDS011;38032;53.326;6.472;2022-07-22T03:18:35;7.57;;;2.50;;
52015;SDS011;38032;53.326;6.472;2022-07-22T03:21:00;9.93;;;2.75;;
52015;SDS011;38032;53.326;6.472;2022-07-22T03:23:26;5.78;;;2.30;;
52015;SDS011;38032;53.326;6.472;2022-07-22T03:25:52;5.72;;;2.00;;
52015;SDS011;38032;53.326;6.472;2022-07-22T03:28:18;9.65;;;2.75;;
52015;SDS011;38032;53.326;6.472;2022-07-22T03:30:43;6.13;;;2.00;;
52015;SDS011;38032;53.326;6.472;2022-07-22T03:33:09;5.25;;;1.77;;
52015;SDS011;38032;53.326;6.472;2022-07-22T03:35:35;6.35;;;2.30;;
52015;SDS011;38032;53.326;6.472;2022-07-22T03:38:01;8.25;;;2.40;;
52015;SDS011;38032;53.326;6.472;2022-07-22T03:40:27;6.30;;;2.30;;
52015;SDS011;38032;53.326;6.472;2022-07-22T03:42:53;7.32;;;2.30;;
52015;SDS011;38032;53.326;6.472;2022-07-22T03:45:18;6.50;;;2.08;;
52015;SDS011;38032;53.326;6.472;2022-07-22T03:47:44;6.05;;;2.10;;
52015;SDS011;38032;53.326;6.472;2022-07-22T03:50:10;6.78;;;1.92;;
52015;SDS011;38032;53.326;6.472;2022-07-22T03:52:36;7.57;;;2.20;;
52015;SDS011;38032;53.326;6.472;2022-07-22T03:55:02;5.07;;;2.00;;
52015;SDS011;38032;53.326;6.472;2022-07-22T03:57:29;6.72;;;2.08;;
52015;SDS011;38032;53.326;6.472;2022-07-22T03:59:55;5.75;;;2.25;;
52015;SDS011;38032;53.326;6.472;2022-07-22T04:02:21;7.97;;;2.30;;
52015;SDS011;38032;53.326;6.472;2022-07-22T04:04:46;7.97;;;2.15;;
52015;SDS011;38032;53.326;6.472;2022-07-22T04:07:12;7.22;;;2.65;;
52015;SDS011;38032;53.326;6.472;2022-07-22T04:09:38;5.20;;;2.30;;
52015;SDS011;38032;53.326;6.472;2022-07-22T04:12:04;5.75;;;2.17;;
52015;SDS011;38032;53.326;6.472;2022-07-22T04:14:30;6.25;;;2.15;;
52015;SDS011;38032;53.326;6.472;2022-07-22T04:16:56;6.60;;;2.40;;
52015;SDS011;38032;53.326;6.472;2022-07-22T04:19:21;6.18;;;1.95;;
52015;SDS011;38032;53.326;6.472;2022-07-22T04:21:47;5.80;;;2.08;;
52015;SDS011;38032;53.326;6.472;2022-07-22T04:24:13;7.13;;;2.10;;
52015;SDS011;38032;53.326;6.472;2022-07-22T04:26:39;7.05;;;2.10;;
52015;SDS011;38032;53.326;6.472;2022-07-22T04:29:05;4.97;;;2.05;;
52015;SDS011;38032;53.326;6.472;2022-07-22T04:31:31;6.47;;;2.00;;
52015;SDS011;38032;53.326;6.472;2022-07-22T04:33:57;4.32;;;1.98;;
52015;SDS011;38032;53.326;6.472;2022-07-22T04:36:24;7.10;;;2.28;;
52015;SDS011;38032;53.326;6.472;2022-07-22T04:38:49;9.38;;;2.08;;
52015;SDS011;38032;53.326;6.472;2022-07-22T04:41:16;7.50;;;2.40;;
52015;SDS011;38032;53.326;6.472;2022-07-22T04:43:42;4.72;;;2.10;;
52015;SDS011;38032;53.326;6.472;2022-07-22T04:46:07;3.58;;;2.00;;
52015;SDS011;38032;53.326;6.472;2022-07-22T04:48:33;6.80;;;2.25;;
52015;SDS011;38032;53.326;6.472;2022-07-22T04:51:00;6.85;;;2.22;;
52015;SDS011;38032;53.326;6.472;2022-07-22T04:53:26;6.03;;;2.15;;
52015;SDS011;38032;53.326;6.472;2022-07-22T04:55:52;4.82;;;2.00;;
52015;SDS011;38032;53.326;6.472;2022-07-22T04:58:18;5.78;;;2.28;;
52015;SDS011;38032;53.326;6.472;2022-07-22T05:00:45;6.95;;;2.13;;
52015;SDS011;38032;53.326;6.472;2022-07-22T05:03:11;5.70;;;2.25;;
52015;SDS011;38032;53.326;6.472;2022-07-22T05:05:38;6.43;;;1.90;;
52015;SDS011;38032;53.326;6.472;2022-07-22T05:08:04;5.95;;;2.05;;
52015;SDS011;38032;53.326;6.472;2022-07-22T05:10:30;6.70;;;2.00;;
52015;SDS011;38032;53.326;6.472;2022-07-22T05:12:57;5.95;;;2.22;;
52015;SDS011;38032;53.326;6.472;2022-07-22T05:15:24;3.40;;;1.90;;
52015;SDS011;38032;53.326;6.472;2022-07-22T05:17:50;6.40;;;2.38;;
52015;SDS011;38032;53.326;6.472;2022-07-22T05:20:16;6.00;;;2.15;;
52015;SDS011;38032;53.326;6.472;2022-07-22T05:22:42;5.90;;;1.95;;
52015;SDS011;38032;53.326;6.472;2022-07-22T05:25:08;4.63;;;2.00;;
52015;SDS011;38032;53.326;6.472;2022-07-22T05:27:34;3.95;;;2.05;;
52015;SDS011;38032;53.326;6.472;2022-07-22T05:30:00;3.95;;;1.80;;
52015;SDS011;38032;53.326;6.472;2022-07-22T05:32:26;8.75;;;2.65;;
52015;SDS011;38032;53.326;6.472;2022-07-22T05:34:51;4.80;;;2.00;;
52015;SDS011;38032;53.326;6.472;2022-07-22T05:37:17;5.50;;;2.08;;
52015;SDS011;38032;53.326;6.472;2022-07-22T05:39:43;4.80;;;1.80;;
52015;SDS011;38032;53.326;6.472;2022-07-22T05:42:09;9.48;;;2.10;;
52015;SDS011;38032;53.326;6.472;2022-07-22T05:44:35;5.25;;;2.10;;
52015;SDS011;38032;53.326;6.472;2022-07-22T05:47:01;7.13;;;2.15;;
52015;SDS011;38032;53.326;6.472;2022-07-22T05:49:28;7.10;;;2.05;;
52015;SDS011;38032;53.326;6.472;2022-07-22T05:51:54;5.55;;;2.08;;
52015;SDS011;38032;53.326;6.472;2022-07-22T05:54:23;4.88;;;1.80;;
52015;SDS011;38032;53.326;6.472;2022-07-22T05:56:48;5.75;;;2.20;;
52015;SDS011;38032;53.326;6.472;2022-07-22T05:59:14;4.38;;;1.80;;
52015;SDS011;38032;53.326;6.472;2022-07-22T06:01:41;5.72;;;1.92;;
52015;SDS011;38032;53.326;6.472;2022-07-22T06:04:07;7.82;;;2.10;;
52015;SDS011;38032;53.326;6.472;2022-07-22T06:06:32;6.97;;;2.05;;
52015;SDS011;38032;53.326;6.472;2022-07-22T06:08:58;5.78;;;1.98;;
52015;SDS011;38032;53.326;6.472;2022-07-22T06:11:24;6.47;;;2.10;;
52015;SDS011;38032;53.326;6.472;2022-07-22T06:13:50;7.38;;;1.65;;
52015;SDS011;38032;53.326;6.472;2022-07-22T06:16:15;5.95;;;2.15;;
52015;SDS011;38032;53.326;6.472;2022-07-22T06:18:41;4.13;;;1.48;;
52015;SDS011;38032;53.326;6.472;2022-07-22T06:21:07;6.90;;;1.98;;
52015;SDS011;38032;53.326;6.472;2022-07-22T06:23:33;25.17;;;2.92;;
52015;SDS011;38032;53.326;6.472;2022-07-22T06:26:00;20.17;;;2.58;;
52015;SDS011;38032;53.326;6.472;2022-07-22T06:28:25;7.18;;;1.67;;
52015;SDS011;38032;53.326;6.472;2022-07-22T06:30:51;9.10;;;1.42;;
52015;SDS011;38032;53.326;6.472;2022-07-22T06:33:17;5.72;;;1.75;;
52015;SDS011;38032;53.326;6.472;2022-07-22T06:35:43;5.03;;;2.20;;
52015;SDS011;38032;53.326;6.472;2022-07-22T06:38:09;9.00;;;1.48;;
52015;SDS011;38032;53.326;6.472;2022-07-22T06:40:35;3.13;;;1.40;;
52015;SDS011;38032;53.326;6.472;2022-07-22T06:43:01;3.10;;;1.40;;
52015;SDS011;38032;53.326;6.472;2022-07-22T06:45:27;2.97;;;1.40;;
52015;SDS011;38032;53.326;6.472;2022-07-22T06:47:54;4.45;;;1.50;;
52015;SDS011;38032;53.326;6.472;2022-07-22T06:50:20;2.80;;;1.40;;
52015;SDS011;38032;53.326;6.472;2022-07-22T06:52:46;3.90;;;1.50;;
52015;SDS011;38032;53.326;6.472;2022-07-22T06:55:14;5.22;;;1.60;;
52015;SDS011;38032;53.326;6.472;2022-07-22T06:57:40;3.13;;;1.30;;
52015;SDS011;38032;53.326;6.472;2022-07-22T07:00:06;4.80;;;1.55;;
52015;SDS011;38032;53.326;6.472;2022-07-22T07:02:33;3.60;;;1.40;;
52015;SDS011;38032;53.326;6.472;2022-07-22T07:04:59;4.68;;;1.48;;
52015;SDS011;38032;53.326;6.472;2022-07-22T07:07:25;3.08;;;1.63;;
52015;SDS011;38032;53.326;6.472;2022-07-22T07:09:51;4.50;;;1.40;;
52015;SDS011;38032;53.326;6.472;2022-07-22T07:12:16;3.58;;;1.40;;
52015;SDS011;38032;53.326;6.472;2022-07-22T07:14:42;5.13;;;1.50;;
52015;SDS011;38032;53.326;6.472;2022-07-22T07:17:08;3.30;;;1.52;;
52015;SDS011;38032;53.326;6.472;2022-07-22T07:19:34;4.78;;;1.38;;
52015;SDS011;38032;53.326;6.472;2022-07-22T07:22:00;2.85;;;1.55;;
52015;SDS011;38032;53.326;6.472;2022-07-22T07:24:25;5.95;;;1.50;;
52015;SDS011;38032;53.326;6.472;2022-07-22T07:26:51;6.05;;;1.48;;
52015;SDS011;38032;53.326;6.472;2022-07-22T07:29:17;5.20;;;1.27;;
52015;SDS011;38032;53.326;6.472;2022-07-22T07:31:43;3.97;;;1.30;;
52015;SDS011;38032;53.326;6.472;2022-07-22T07:34:09;3.88;;;1.50;;
52015;SDS011;38032;53.326;6.472;2022-07-22T07:36:34;3.60;;;1.40;;
52015;SDS011;38032;53.326;6.472;2022-07-22T07:39:00;5.55;;;1.67;;
52015;SDS011;38032;53.326;6.472;2022-07-22T07:41:26;4.95;;;1.70;;
52015;SDS011;38032;53.326;6.472;2022-07-22T07:43:52;4.63;;;1.65;;
52015;SDS011;38032;53.326;6.472;2022-07-22T07:46:18;4.55;;;1.55;;
52015;SDS011;38032;53.326;6.472;2022-07-22T07:48:43;3.92;;;1.27;;
52015;SDS011;38032;53.326;6.472;2022-07-22T07:51:10;4.40;;;1.85;;
52015;SDS011;38032;53.326;6.472;2022-07-22T07:53:36;3.83;;;1.40;;
52015;SDS011;38032;53.326;6.472;2022-07-22T07:56:02;5.30;;;1.48;;
52015;SDS011;38032;53.326;6.472;2022-07-22T07:58:28;4.82;;;1.52;;
52015;SDS011;38032;53.326;6.472;2022-07-22T08:00:53;4.93;;;1.50;;
52015;SDS011;38032;53.326;6.472;2022-07-22T08:03:19;4.82;;;1.50;;
52015;SDS011;38032;53.326;6.472;2022-07-22T08:05:45;5.88;;;1.60;;
52015;SDS011;38032;53.326;6.472;2022-07-22T08:08:11;4.90;;;1.48;;
52015;SDS011;38032;53.326;6.472;2022-07-22T08:10:36;4.45;;;2.03;;
52015;SDS011;38032;53.326;6.472;2022-07-22T08:13:03;4.00;;;1.73;;
52015;SDS011;38032;53.326;6.472;2022-07-22T08:15:29;4.38;;;1.60;;
52015;SDS011;38032;53.326;6.472;2022-07-22T08:17:56;4.28;;;1.60;;
52015;SDS011;38032;53.326;6.472;2022-07-22T08:20:24;4.05;;;1.30;;
52015;SDS011;38032;53.326;6.472;2022-07-22T08:22:50;3.78;;;1.50;;
52015;SDS011;38032;53.326;6.472;2022-07-22T08:25:17;3.35;;;1.35;;
52015;SDS011;38032;53.326;6.472;2022-07-22T08:27:43;4.25;;;1.50;;
52015;SDS011;38032;53.326;6.472;2022-07-22T08:30:10;3.60;;;1.40;;
52015;SDS011;38032;53.326;6.472;2022-07-22T08:32:36;3.03;;;1.30;;
52015;SDS011;38032;53.326;6.472;2022-07-22T08:35:03;7.03;;;1.70;;
52015;SDS011;38032;53.326;6.472;2022-07-22T08:37:29;5.32;;;1.85;;
52015;SDS011;38032;53.326;6.472;2022-07-22T08:39:55;3.58;;;1.40;;
52015;SDS011;38032;53.326;6.472;2022-07-22T08:42:21;5.45;;;1.73;;
52015;SDS011;38032;53.326;6.472;2022-07-22T08:44:48;8.00;;;1.65;;
52015;SDS011;38032;53.326;6.472;2022-07-22T08:47:14;4.60;;;1.70;;
52015;SDS011;38032;53.326;6.472;2022-07-22T08:49:40;5.60;;;1.55;;
52015;SDS011;38032;53.326;6.472;2022-07-22T08:52:06;3.38;;;1.60;;
52015;SDS011;38032;53.326;6.472;2022-07-22T08:54:32;6.32;;;1.55;;
52015;SDS011;38032;53.326;6.472;2022-07-22T08:56:58;3.75;;;1.35;;
52015;SDS011;38032;53.326;6.472;2022-07-22T08:59:24;10.43;;;1.67;;
52015;SDS011;38032;53.326;6.472;2022-07-22T09:02:01;4.57;;;1.38;;
52015;SDS011;38032;53.326;6.472;2022-07-22T09:04:30;5.78;;;1.50;;
52015;SDS011;38032;53.326;6.472;2022-07-22T09:06:56;5.82;;;1.48;;
52015;SDS011;38032;53.326;6.472;2022-07-22T09:09:32;3.30;;;1.40;;
52015;SDS011;38032;53.326;6.472;2022-07-22T09:12:05;3.00;;;1.42;;
52015;SDS011;38032;53.326;6.472;2022-07-22T09:14:47;3.50;;;1.30;;
52015;SDS011;38032;53.326;6.472;2022-07-22T09:17:24;4.88;;;1.60;;
52015;SDS011;38032;53.326;6.472;2022-07-22T09:22:30;4.10;;;1.50;;
52015;SDS011;38032;53.326;6.472;2022-07-22T09:27:45;3.45;;;1.30;;
52015;SDS011;38032;53.326;6.472;2022-07-22T09:30:12;3.55;;;1.20;;
52015;SDS011;38032;53.326;6.472;2022-07-22T09:32:41;3.95;;;1.40;;
52015;SDS011;38032;53.326;6.472;2022-07-22T09:35:08;3.53;;;1.40;;
52015;SDS011;38032;53.326;6.472;2022-07-22T09:37:35;4.80;;;1.30;;
52015;SDS011;38032;53.326;6.472;2022-07-22T09:40:15;3.00;;;1.10;;
52015;SDS011;38032;53.326;6.472;2022-07-22T09:45:14;6.60;;;1.60;;
52015;SDS011;38032;53.326;6.472;2022-07-22T09:47:41;7.82;;;1.90;;
52015;SDS011;38032;53.326;6.472;2022-07-22T09:50:14;4.43;;;1.42;;
52015;SDS011;38032;53.326;6.472;2022-07-22T09:52:44;5.00;;;1.70;;
52015;SDS011;38032;53.326;6.472;2022-07-22T09:55:10;5.75;;;1.80;;
52015;SDS011;38032;53.326;6.472;2022-07-22T09:57:36;6.40;;;1.65;;
52015;SDS011;38032;53.326;6.472;2022-07-22T10:00:03;6.43;;;1.60;;
52015;SDS011;38032;53.326;6.472;2022-07-22T10:02:32;5.57;;;1.75;;
52015;SDS011;38032;53.326;6.472;2022-07-22T10:05:01;5.70;;;1.50;;
52015;SDS011;38032;53.326;6.472;2022-07-22T10:07:27;3.90;;;1.40;;
52015;SDS011;38032;53.326;6.472;2022-07-22T10:09:53;5.43;;;1.52;;
52015;SDS011;38032;53.326;6.472;2022-07-22T10:12:20;2.63;;;1.17;;
52015;SDS011;38032;53.326;6.472;2022-07-22T10:14:47;2.25;;;1.20;;
52015;SDS011;38032;53.326;6.472;2022-07-22T10:17:14;3.20;;;1.20;;
52015;SDS011;38032;53.326;6.472;2022-07-22T10:19:40;3.83;;;1.10;;
52015;SDS011;38032;53.326;6.472;2022-07-22T10:25:20;4.22;;;1.15;;
52015;SDS011;38032;53.326;6.472;2022-07-22T10:28:04;2.40;;;1.13;;
52015;SDS011;38032;53.326;6.472;2022-07-22T10:30:32;4.35;;;1.05;;
52015;SDS011;38032;53.326;6.472;2022-07-22T10:33:01;3.55;;;1.05;;
52015;SDS011;38032;53.326;6.472;2022-07-22T10:35:30;2.35;;;1.00;;
52015;SDS011;38032;53.326;6.472;2022-07-22T10:37:57;2.03;;;0.95;;
52015;SDS011;38032;53.326;6.472;2022-07-22T10:40:26;3.08;;;1.10;;
52015;SDS011;38032;53.326;6.472;2022-07-22T10:47:56;2.03;;;1.10;;
52015;SDS011;38032;53.326;6.472;2022-07-22T10:53:03;4.18;;;1.40;;
52015;SDS011;38032;53.326;6.472;2022-07-22T10:55:30;2.35;;;0.95;;
52015;SDS011;38032;53.326;6.472;2022-07-22T10:57:57;3.78;;;1.10;;
52015;SDS011;38032;53.326;6.472;2022-07-22T11:00:22;4.25;;;1.08;;
52015;SDS011;38032;53.326;6.472;2022-07-22T11:02:48;6.00;;;1.02;;
52015;SDS011;38032;53.326;6.472;2022-07-22T11:05:14;2.40;;;0.98;;
52015;SDS011;38032;53.326;6.472;2022-07-22T11:07:50;4.10;;;1.20;;
52015;SDS011;38032;53.326;6.472;2022-07-22T11:10:17;3.63;;;1.30;;
52015;SDS011;38032;53.326;6.472;2022-07-22T11:12:46;4.38;;;1.15;;
52015;SDS011;38032;53.326;6.472;2022-07-22T11:15:13;5.30;;;1.20;;
52015;SDS011;38032;53.326;6.472;2022-07-22T11:17:38;2.88;;;1.05;;
52015;SDS011;38032;53.326;6.472;2022-07-22T11:20:05;4.35;;;1.20;;
52015;SDS011;38032;53.326;6.472;2022-07-22T11:22:34;4.68;;;1.13;;
52015;SDS011;38032;53.326;6.472;2022-07-22T11:25:05;5.20;;;1.65;;
52015;SDS011;38032;53.326;6.472;2022-07-22T11:27:33;3.97;;;1.30;;
52015;SDS011;38032;53.326;6.472;2022-07-22T11:29:59;3.67;;;1.20;;
52015;SDS011;38032;53.326;6.472;2022-07-22T11:32:26;2.40;;;1.27;;
52015;SDS011;38032;53.326;6.472;2022-07-22T11:34:55;2.17;;;1.20;;
52015;SDS011;38032;53.326;6.472;2022-07-22T11:37:22;2.25;;;1.00;;
52015;SDS011;38032;53.326;6.472;2022-07-22T11:39:50;3.28;;;1.33;;
52015;SDS011;38032;53.326;6.472;2022-07-22T11:42:16;2.83;;;1.20;;
52015;SDS011;38032;53.326;6.472;2022-07-22T11:44:42;4.40;;;1.40;;
52015;SDS011;38032;53.326;6.472;2022-07-22T11:47:09;6.72;;;1.38;;
52015;SDS011;38032;53.326;6.472;2022-07-22T11:49:36;3.17;;;1.20;;
52015;SDS011;38032;53.326;6.472;2022-07-22T11:52:04;5.10;;;1.30;;
52015;SDS011;38032;53.326;6.472;2022-07-22T11:54:32;4.30;;;1.30;;
52015;SDS011;38032;53.326;6.472;2022-07-22T11:56:59;5.45;;;1.30;;
52015;SDS011;38032;53.326;6.472;2022-07-22T11:59:26;4.88;;;1.40;;
52015;SDS011;38032;53.326;6.472;2022-07-22T12:01:52;4.03;;;1.38;;
52015;SDS011;38032;53.326;6.472;2022-07-22T12:04:23;2.78;;;1.48;;
52015;SDS011;38032;53.326;6.472;2022-07-22T12:06:51;4.45;;;1.58;;
52015;SDS011;38032;53.326;6.472;2022-07-22T12:11:48;4.40;;;1.60;;
52015;SDS011;38032;53.326;6.472;2022-07-22T12:14:18;3.38;;;1.73;;
52015;SDS011;38032;53.326;6.472;2022-07-22T12:16:54;6.70;;;1.63;;
52015;SDS011;38032;53.326;6.472;2022-07-22T12:21:57;3.10;;;1.23;;
52015;SDS011;38032;53.326;6.472;2022-07-22T12:24:25;2.78;;;1.33;;
52015;SDS011;38032;53.326;6.472;2022-07-22T12:26:52;7.05;;;1.80;;
52015;SDS011;38032;53.326;6.472;2022-07-22T12:29:20;5.35;;;1.48;;
52015;SDS011;38032;53.326;6.472;2022-07-22T12:34:16;3.53;;;1.30;;
52015;SDS011;38032;53.326;6.472;2022-07-22T12:36:54;3.95;;;1.27;;
52015;SDS011;38032;53.326;6.472;2022-07-22T12:39:20;2.60;;;1.10;;
52015;SDS011;38032;53.326;6.472;2022-07-22T12:41:49;3.90;;;1.25;;
52015;SDS011;38032;53.326;6.472;2022-07-22T12:44:17;3.17;;;1.35;;
52015;SDS011;38032;53.326;6.472;2022-07-22T12:46:47;4.88;;;1.40;;
52015;SDS011;38032;53.326;6.472;2022-07-22T12:49:15;4.05;;;1.20;;
52015;SDS011;38032;53.326;6.472;2022-07-22T12:52:03;2.75;;;1.33;;
52015;SDS011;38032;53.326;6.472;2022-07-22T12:54:38;2.90;;;1.20;;
52015;SDS011;38032;53.326;6.472;2022-07-22T12:57:06;3.85;;;1.40;;
52015;SDS011;38032;53.326;6.472;2022-07-22T12:59:33;5.05;;;1.50;;
52015;SDS011;38032;53.326;6.472;2022-07-22T13:02:00;4.70;;;1.45;;
52015;SDS011;38032;53.326;6.472;2022-07-22T13:04:26;2.97;;;1.60;;
52015;SDS011;38032;53.326;6.472;2022-07-22T13:06:52;4.80;;;1.30;;
52015;SDS011;38032;53.326;6.472;2022-07-22T13:09:18;4.05;;;1.20;;
52015;SDS011;38032;53.326;6.472;2022-07-22T13:11:44;2.15;;;1.20;;
52015;SDS011;38032;53.326;6.472;2022-07-22T13:14:11;4.53;;;1.27;;
52015;SDS011;38032;53.326;6.472;2022-07-22T13:16:38;4.75;;;1.30;;
52015;SDS011;38032;53.326;6.472;2022-07-22T13:19:04;3.70;;;1.20;;
52015;SDS011;38032;53.326;6.472;2022-07-22T13:21:31;3.08;;;1.30;;
52015;SDS011;38032;53.326;6.472;2022-07-22T13:23:57;4.47;;;1.30;;
52015;SDS011;38032;53.326;6.472;2022-07-22T13:26:23;2.45;;;1.15;;
52015;SDS011;38032;53.326;6.472;2022-07-22T13:28:51;3.13;;;1.10;;
52015;SDS011;38032;53.326;6.472;2022-07-22T13:31:17;4.55;;;1.20;;
52015;SDS011;38032;53.326;6.472;2022-07-22T13:33:42;3.45;;;1.10;;
52015;SDS011;38032;53.326;6.472;2022-07-22T13:36:08;2.35;;;1.05;;
52015;SDS011;38032;53.326;6.472;2022-07-22T13:38:34;4.15;;;1.40;;
52015;SDS011;38032;53.326;6.472;2022-07-22T13:41:00;3.40;;;1.00;;
52015;SDS011;38032;53.326;6.472;2022-07-22T13:43:26;3.03;;;1.20;;
52015;SDS011;38032;53.326;6.472;2022-07-22T13:45:52;6.05;;;1.60;;
52015;SDS011;38032;53.326;6.472;2022-07-22T13:48:18;2.47;;;1.10;;
52015;SDS011;38032;53.326;6.472;2022-07-22T13:50:45;3.30;;;1.33;;
52015;SDS011;38032;53.326;6.472;2022-07-22T13:53:12;1.95;;;1.05;;
52015;SDS011;38032;53.326;6.472;2022-07-22T13:55:38;3.30;;;1.10;;
52015;SDS011;38032;53.326;6.472;2022-07-22T13:58:05;2.30;;;1.20;;
52015;SDS011;38032;53.326;6.472;2022-07-22T14:00:31;2.60;;;1.17;;
52015;SDS011;38032;53.326;6.472;2022-07-22T14:02:57;4.03;;;1.40;;
52015;SDS011;38032;53.326;6.472;2022-07-22T14:05:23;4.30;;;1.35;;
52015;SDS011;38032;53.326;6.472;2022-07-22T14:07:49;3.35;;;1.20;;
52015;SDS011;38032;53.326;6.472;2022-07-22T14:10:15;3.47;;;1.42;;
52015;SDS011;38032;53.326;6.472;2022-07-22T14:12:41;3.20;;;1.30;;
52015;SDS011;38032;53.326;6.472;2022-07-22T14:15:07;1.95;;;1.20;;
52015;SDS011;38032;53.326;6.472;2022-07-22T14:17:34;2.33;;;1.10;;
52015;SDS011;38032;53.326;6.472;2022-07-22T14:20:00;4.70;;;1.40;;
52015;SDS011;38032;53.326;6.472;2022-07-22T14:22:27;4.15;;;1.48;;
52015;SDS011;38032;53.326;6.472;2022-07-22T14:24:53;3.25;;;1.20;;
52015;SDS011;38032;53.326;6.472;2022-07-22T14:27:19;3.70;;;1.20;;
52015;SDS011;38032;53.326;6.472;2022-07-22T14:29:45;3.17;;;1.10;;
52015;SDS011;38032;53.326;6.472;2022-07-22T14:32:10;2.80;;;1.20;;
52015;SDS011;38032;53.326;6.472;2022-07-22T14:34:36;3.67;;;1.27;;
52015;SDS011;38032;53.326;6.472;2022-07-22T14:37:02;1.98;;;1.10;;
52015;SDS011;38032;53.326;6.472;2022-07-22T14:39:28;3.80;;;1.20;;
52015;SDS011;38032;53.326;6.472;2022-07-22T14:41:54;3.90;;;1.38;;
52015;SDS011;38032;53.326;6.472;2022-07-22T14:44:19;2.78;;;1.20;;
52015;SDS011;38032;53.326;6.472;2022-07-22T14:46:45;3.50;;;1.30;;
52015;SDS011;38032;53.326;6.472;2022-07-22T14:49:11;1.65;;;1.10;;
52015;SDS011;38032;53.326;6.472;2022-07-22T14:51:37;3.53;;;1.25;;
52015;SDS011;38032;53.326;6.472;2022-07-22T14:54:03;2.72;;;1.25;;
52015;SDS011;38032;53.326;6.472;2022-07-22T14:56:29;3.45;;;1.30;;
52015;SDS011;38032;53.326;6.472;2022-07-22T14:58:54;3.58;;;1.23;;
52015;SDS011;38032;53.326;6.472;2022-07-22T15:01:20;3.40;;;1.42;;
52015;SDS011;38032;53.326;6.472;2022-07-22T15:03:46;2.70;;;1.52;;
52015;SDS011;38032;53.326;6.472;2022-07-22T15:06:12;2.55;;;1.42;;
52015;SDS011;38032;53.326;6.472;2022-07-22T15:08:38;2.85;;;1.20;;
52015;SDS011;38032;53.326;6.472;2022-07-22T15:11:03;2.70;;;1.30;;